Latest Weather Observations for Christmas Creek

IDW60801

Issued at 7:04 am WST Sunday 19 November 2017 (issued every 30 minutes, with the page automatically refreshed every 10 minutes)

About weather observations | Map of weather stations | Latest weather observations for WA | Other Formats
Station Details ID: 505049 Name: CHRISTMAS CREEK Lat: -22.36 Lon: 119.65 Height: 437.21 m
Data from the previous 72 hours. | See also: Recent months for locations in Western Australia
Date/Time
WST
Temp
°C
App
Temp
°C
Dew
Point
°C
Rel
Hum
%
Delta-T
°C
Wind Press
QNH
hPa
Press
MSL
hPa
Rain since
9am
mm
Dir  Spd
km/h
Gust
km/h
Spd
kts
Gust
kts
19/07:00am 27.6 23.2 9.0 31 10.4 SSE 22 30 12 16 1012.3 1009.1 0.0
19/06:30am 26.8 23.3 8.7 32 10.1 SSE 17 28 9 15 1012.2 1009.0 0.0
19/06:00am 24.7 23.1 7.8 34 9.1 SE 6 11 3 6 1012.1 1008.9 0.0
19/05:30am 23.7 21.9 7.8 36 8.5 SE 7 9 4 5 1011.9 1008.7 0.0
19/05:00am 23.4 21.8 7.9 37 8.3 SE 6 7 3 4 1011.4 1008.2 0.0
19/04:30am 23.7 21.5 7.8 36 8.5 SSE 9 13 5 7 1011.1 1007.9 0.0
19/04:00am 23.7 22.3 8.9 39 8.1 SSE 6 9 3 5 1011.0 1007.8 0.0
19/03:30am 23.3 22.3 9.0 40 7.8 SSE 4 6 2 3 1010.7 1007.6 0.0
19/03:00am 24.1 23.7 9.7 40 8.0 ENE 2 4 1 2 1010.6 1007.5 0.0
19/02:30am 25.2 24.4 9.5 37 8.8 N 4 6 2 3 1010.4 1007.3 0.0
19/02:00am 24.9 23.6 10.0 39 8.4 SW 7 7 4 4 1010.3 1007.1 0.0
19/01:30am 25.6 25.1 9.4 36 9.0 W 2 4 1 2 1010.4 1007.3 0.0
19/01:00am 26.6 25.9 9.9 35 9.5 NW 4 7 2 4 1010.5 1007.4 0.0
19/12:30am 27.4 26.7 10.2 34 9.8 W 4 7 2 4 1010.7 1007.6 0.0
19/12:00am 28.1 27.1 10.3 33 10.2 WNW 6 9 3 5 1010.9 1007.7 0.0
 
Date/Time
WST
Temp
°C
App
Temp
°C
Dew
Point
°C
Rel
Hum
%
Delta-T
°C
Wind Press
QNH
hPa
Press
MSL
hPa
Rain since
9am
mm
Dir  Spd
km/h
Gust
km/h
Spd
kts
Gust
kts
18/11:30pm 29.2 27.6 10.3 31 10.9 WSW 9 15 5 8 1010.9 1007.7 0.0
18/11:00pm 30.1 26.8 11.6 32 10.9 NW 20 26 11 14 1010.4 1007.3 0.0
18/10:30pm 30.6 27.0 10.5 29 11.7 NW 20 28 11 15 1010.5 1007.4 0.0
18/10:00pm 30.8 27.7 10.2 28 12.0 NW 17 22 9 12 1010.7 1007.6 0.0
18/09:30pm 30.8 27.9 9.6 27 12.2 NW 15 19 8 10 1010.5 1007.4 0.0
18/09:00pm 31.4 28.9 9.6 26 12.6 NNW 13 17 7 9 1010.2 1007.0 0.0
18/08:30pm 32.5 29.1 9.3 24 13.4 NW 17 24 9 13 1009.8 1006.6 0.0
18/08:00pm 33.2 29.3 9.3 23 13.8 NW 20 28 11 15 1009.4 1006.2 0.0
18/07:30pm 33.8 29.6 8.4 21 14.5 NW 20 28 11 15 1009.2 1006.0 0.0
18/07:00pm 34.3 29.7 8.1 20 15.0 NW 22 32 12 17 1008.9 1005.7 0.0
18/06:30pm 35.0 29.6 7.9 19 15.5 NW 26 33 14 18 1008.3 1005.1 0.0
18/06:00pm 35.9 30.5 7.9 18 16.1 NW 26 35 14 19 1007.9 1004.7 0.0
18/05:30pm 36.6 31.1 7.6 17 16.6 NW 26 37 14 20 1007.7 1004.5 0.0
18/05:00pm 37.2 31.1 8.1 17 16.8 NW 30 44 16 24 1007.4 1004.2 0.0
18/04:30pm 37.2 30.7 8.1 17 16.8 NW 32 44 17 24 1007.3 1004.1 0.0
18/04:00pm 37.8 31.0 6.7 15 17.7 NW 32 43 17 23 1007.3 1004.1 0.0
18/03:58pm 38.0 30.8 5.9 14 18.0 WNW 33 46 18 25 1007.4 1004.2 0.0
18/03:50pm 38.1 30.8 7.0 15 17.7 NW 35 46 19 25 1007.3 1004.1 0.0
18/03:30pm 37.4 29.9 6.4 15 17.5 NNW 35 57 19 31 1007.5 1004.3 0.0
18/03:01pm 38.4 32.3 8.1 16 17.6 NW 30 48 16 26 1007.7 1004.5 0.0
18/03:00pm 38.2 31.4 7.0 15 17.8 NW 32 48 17 26 1007.7 1004.5 0.0
18/02:34pm 37.9 31.1 6.8 15 17.7 NW 32 50 17 27 1007.8 1004.6 0.0
18/02:30pm 38.4 31.1 7.2 15 17.9 NW 35 50 19 27 1007.8 1004.6 0.0
18/02:00pm 38.6 31.3 7.4 15 18.0 NW 35 50 19 27 1007.8 1004.6 0.0
18/01:30pm 37.5 30.5 8.3 17 16.9 NW 35 54 19 29 1008.3 1005.1 0.0
18/01:05pm 37.9 30.9 8.6 17 17.1 NW 35 54 19 29 1008.5 1005.3 0.0
18/01:00pm 37.9 31.5 9.5 18 16.8 NW 33 48 18 26 1008.7 1005.5 0.0
18/12:32pm 37.5 31.5 10.0 19 16.4 WNW 32 50 17 27 1008.9 1005.7 0.0
18/12:30pm 37.2 31.1 9.7 19 16.3 NW 32 44 17 24 1009.0 1005.8 0.0
18/12:09pm 36.5 31.0 9.2 19 16.0 NW 28 48 15 26 1009.3 1006.1 0.0
18/12:00pm 36.4 30.5 9.1 19 16.0 NW 30 46 16 25 1009.4 1006.2 0.0
18/11:30am 35.5 31.7 9.8 21 15.1 WNW 20 35 11 19 1009.8 1006.6 0.0
18/11:00am 35.1 32.4 10.2 22 14.7 W 15 32 8 17 1010.2 1007.0 0.0
18/10:30am 33.5 29.8 10.2 24 13.7 W 20 32 11 17 1010.5 1007.4 0.0
18/10:00am 32.7 29.0 9.5 24 13.4 W 19 33 10 18 1010.9 1007.7 0.0
18/09:30am 31.6 29.1 9.8 26 12.6 WSW 13 22 7 12 1011.1 1007.9 0.0
18/09:00am 30.5 27.3 9.9 28 11.9 WSW 17 26 9 14 1011.4 1008.2 0.0
18/08:30am 29.4 27.9 11.9 34 10.4 WSW 11 20 6 11 1011.4 1008.2 0.0
18/08:00am 27.3 26.9 14.0 44 8.1 WNW 9 17 5 9 1011.3 1008.1 0.0
18/07:30am 26.0 25.8 15.7 53 6.4 WNW 11 19 6 10 1011.4 1008.2 0.0
18/07:00am 24.6 24.2 16.3 60 5.2 NW 13 19 7 10 1011.3 1008.1 0.0
18/06:30am 23.7 23.5 16.7 65 4.4 NW 13 20 7 11 1011.0 1007.8 0.0
18/06:00am 22.3 22.6 17.0 72 3.3 NNW 11 15 6 8 1010.7 1007.6 0.0
18/05:30am 21.7 22.0 16.9 74 3.0 NW 11 13 6 7 1010.6 1007.5 0.0
18/05:00am 21.7 22.2 16.6 73 3.2 NNW 9 11 5 6 1010.1 1006.9 0.0
18/04:30am 22.2 22.7 16.5 70 3.5 NW 9 13 5 7 1009.8 1006.6 0.0
18/04:00am 22.5 22.5 16.3 68 3.8 NNW 11 15 6 8 1009.6 1006.4 0.0
18/03:30am 23.2 22.3 15.8 63 4.5 NW 15 19 8 10 1009.3 1006.1 0.0
18/03:00am 23.6 23.4 15.6 61 4.9 NNW 11 17 6 9 1009.6 1006.4 0.0
18/02:30am 24.1 23.0 15.3 58 5.4 NW 15 20 8 11 1009.6 1006.4 0.0
18/02:00am 24.7 23.2 15.3 56 5.8 NW 17 20 9 11 1009.7 1006.5 0.0
18/01:30am 25.2 23.6 14.9 52 6.3 NNW 17 22 9 12 1009.8 1006.6 0.0
18/01:00am 25.8 24.4 14.6 50 6.8 NNW 15 20 8 11 1009.9 1006.7 0.0
18/12:30am 26.2 25.3 13.7 46 7.5 NNW 11 17 6 9 1010.2 1007.0 0.0
18/12:00am 26.7 24.9 12.0 40 8.6 NNW 13 19 7 10 1010.3 1007.1 0.0
 
Date/Time
WST
Temp
°C
App
Temp
°C
Dew
Point
°C
Rel
Hum
%
Delta-T
°C
Wind Press
QNH
hPa
Press
MSL
hPa
Rain since
9am
mm
Dir  Spd
km/h
Gust
km/h
Spd
kts
Gust
kts
17/11:30pm 27.5 25.3 10.7 35 9.7 NNW 13 17 7 9 1010.3 1007.1 0.0
17/11:00pm 28.1 25.9 10.8 34 10.0 NNW 13 17 7 9 1010.6 1007.5 0.0
17/10:30pm 28.8 26.4 11.4 34 10.2 NNW 15 19 8 10 1010.7 1007.6 0.0
17/10:00pm 29.5 26.9 12.0 34 10.4 NNW 17 20 9 11 1010.4 1007.3 0.0
17/09:30pm 30.1 27.5 12.1 33 10.7 NNW 17 24 9 13 1010.3 1007.1 0.0
17/09:00pm 30.8 27.7 12.2 32 11.1 NW 20 28 11 15 1010.0 1006.8 0.0
17/08:30pm 31.4 28.3 11.7 29 11.7 NW 19 26 10 14 1009.8 1006.6 0.0
17/08:00pm 31.9 29.0 12.2 30 11.9 NW 19 24 10 13 1009.5 1006.3 0.0
17/07:30pm 32.5 29.4 12.2 29 12.2 NW 20 28 11 15 1009.3 1006.1 0.0
17/07:00pm 33.0 28.3 12.1 28 12.6 NNW 28 39 15 21 1009.0 1005.8 0.0
17/06:30pm 33.5 28.4 11.9 27 13.0 NNW 30 39 16 21 1008.6 1005.4 0.0
17/06:00pm 34.3 28.8 12.0 25 13.5 NNW 32 43 17 23 1008.2 1005.0 0.0
17/05:40pm 34.8 29.9 12.5 26 13.6 NW 30 48 16 26 1007.9 1004.7 0.0
17/05:30pm 35.2 29.8 12.2 25 14.0 NW 32 43 17 23 1007.8 1004.6 0.0
17/05:00pm 35.7 30.1 12.0 24 14.4 NNW 33 43 18 23 1007.4 1004.2 0.0
17/04:30pm 36.1 30.4 11.7 23 14.8 NW 33 52 18 28 1007.4 1004.2 0.0
17/04:01pm 36.6 31.6 12.1 23 15.0 NNW 30 48 16 26 1007.3 1004.1 0.0
17/04:00pm 36.3 31.2 11.9 23 14.9 NNW 30 46 16 25 1007.4 1004.2 0.0
17/03:48pm 36.5 31.0 12.0 23 14.9 NW 32 50 17 27 1007.4 1004.2 0.0
17/03:42pm 36.5 30.9 12.0 23 14.9 NNW 33 44 18 24 1007.5 1004.3 0.0
17/03:30pm 36.7 31.3 12.2 23 15.0 NNW 32 43 17 23 1007.5 1004.3 0.0
17/03:02pm 37.4 31.2 11.4 21 15.8 NNW 35 54 19 29 1007.5 1004.3 0.0
17/03:00pm 37.4 32.0 12.8 23 15.3 NNW 33 46 18 25 1007.6 1004.4 0.0
17/02:30pm 37.2 32.1 11.9 22 15.4 NW 30 48 16 26 1007.8 1004.6 0.0
17/02:15pm 37.5 32.1 12.2 22 15.5 NNW 32 52 17 28 1007.9 1004.7 0.0
17/02:00pm 36.3 30.6 11.9 23 14.9 NNW 33 46 18 25 1008.1 1004.9 0.0
17/01:41pm 36.8 31.3 12.3 23 15.0 NW 33 52 18 28 1008.3 1005.1 0.0
17/01:30pm 37.1 31.2 12.5 23 15.1 NNW 35 52 19 28 1008.2 1005.0 0.0
17/01:06pm 37.0 32.4 12.4 23 15.1 NW 28 52 15 28 1008.6 1005.4 0.0
17/01:00pm 37.0 32.4 12.4 23 15.1 NNW 28 43 15 23 1008.7 1005.5 0.0
17/12:41pm 36.7 31.1 12.2 23 15.0 NW 33 56 18 30 1008.9 1005.7 0.0
17/12:30pm 36.3 31.6 11.9 23 14.8 NNW 28 43 15 23 1008.9 1005.7 0.0
17/12:10pm 37.4 32.5 11.4 21 15.8 NW 28 48 15 26 1009.1 1005.9 0.0
17/12:00pm 35.4 31.4 13.0 26 13.8 NW 26 48 14 26 1009.2 1006.0 0.0
17/11:52am 36.7 32.8 12.2 23 15.0 NW 24 48 13 26 1009.1 1005.9 0.0
17/11:30am 35.3 32.4 14.0 28 13.3 WNW 22 37 12 20 1009.4 1006.2 0.0
17/11:00am 35.1 32.0 13.3 27 13.5 NW 22 37 12 20 1009.8 1006.6 0.0
17/10:30am 33.9 30.4 13.4 29 12.6 WNW 24 35 13 19 1010.1 1006.9 0.0
17/10:00am 33.5 30.6 13.0 29 12.6 WNW 20 33 11 18 1010.4 1007.3 0.0
17/09:30am 32.2 29.3 12.4 30 11.9 WNW 19 32 10 17 1010.7 1007.6 0.0
17/09:00am 31.7 29.8 13.0 32 11.4 W 15 24 8 13 1011.1 1007.9 -
17/08:30am 30.6 28.3 13.0 34 10.7 W 17 28 9 15 1011.5 1008.3 -
17/08:00am 29.4 26.1 12.8 36 10.0 WNW 22 35 12 19 1011.7 1008.5 -
17/07:30am 28.3 26.3 13.8 41 8.8 W 17 24 9 13 1011.6 1008.4 -
17/07:00am 27.0 25.8 14.1 45 7.8 W 13 24 7 13 1011.5 1008.3 -
17/06:30am 25.8 24.3 14.3 49 7.0 WNW 15 24 8 13 1011.5 1008.3 -
17/06:00am 24.8 24.2 14.6 53 6.2 WNW 11 19 6 10 1011.3 1008.1 -
17/05:30am 23.6 23.3 14.3 56 5.6 NW 9 13 5 7 1011.0 1007.8 -
17/05:00am 22.8 22.1 13.3 55 5.6 NNW 9 11 5 6 1010.5 1007.4 -
17/04:30am 22.9 22.1 12.8 53 5.9 NNW 9 11 5 6 1010.3 1007.1 -
17/04:00am 23.6 23.1 12.6 50 6.4 N 7 9 4 5 1010.1 1006.9 -
17/03:30am 23.8 22.8 12.4 48 6.6 NNW 9 13 5 7 1010.0 1006.8 -
17/03:00am 24.5 23.8 12.1 46 7.2 N 7 11 4 6 1009.8 1006.6 -
17/02:30am 25.2 24.1 12.1 44 7.6 NW 9 11 5 6 1009.8 1006.6 -
17/02:00am 25.4 24.7 11.9 43 7.9 NW 7 11 4 6 1009.9 1006.7 -
17/01:30am 25.6 24.3 11.4 41 8.2 NW 9 11 5 6 1010.2 1007.0 -
17/01:00am 26.4 25.0 10.9 38 8.9 NW 9 13 5 7 1010.4 1007.3 -
17/12:30am 27.1 24.0 10.3 35 9.6 NW 17 22 9 12 1010.5 1007.4 -
17/12:00am 27.6 24.2 9.0 31 10.4 NW 17 26 9 14 1010.7 1007.6 -
 
Date/Time
WST
Temp
°C
App
Temp
°C
Dew
Point
°C
Rel
Hum
%
Delta-T
°C
Wind Press
QNH
hPa
Press
MSL
hPa
Rain since
9am
mm
Dir  Spd
km/h
Gust
km/h
Spd
kts
Gust
kts
16/11:30pm 28.2 23.7 8.5 29 11.0 NW 22 32 12 17 1010.9 1007.7 -
16/11:00pm 28.8 24.3 8.5 28 11.4 NW 22 32 12 17 1010.9 1007.7 -
16/10:30pm 29.3 25.7 8.4 27 11.7 NW 17 22 9 12 1010.9 1007.7 -
16/09:00pm 31.3 28.0 9.5 26 12.5 NW 17 22 9 12 1010.2 1007.0 0.0
16/08:30pm 31.9 28.4 8.8 24 13.2 WNW 17 20 9 11 1009.9 1006.7 0.0
16/08:00pm 32.5 29.0 8.7 23 13.6 NW 17 20 9 11 1009.6 1006.4 0.0
16/07:30pm 33.1 29.5 8.5 22 14.0 NW 17 24 9 13 1009.3 1006.1 0.0
16/07:00pm 33.6 30.0 8.3 21 14.5 NW 17 22 9 12 1009.0 1005.8 0.0
16/06:30pm 34.4 29.0 8.2 20 15.0 NW 26 35 14 19 1008.6 1005.4 0.0
16/06:00pm 35.3 30.5 7.4 18 15.8 NW 22 30 12 16 1008.3 1005.1 0.0
16/05:30pm 36.2 31.4 7.3 17 16.4 NNW 22 32 12 17 1008.1 1004.9 0.0
16/05:00pm 35.8 30.7 7.8 18 16.0 NNW 24 37 13 20 1007.9 1004.7 0.0
16/04:30pm 36.5 30.6 7.5 17 16.5 NW 28 44 15 24 1007.7 1004.5 0.0
16/04:09pm 36.6 30.5 6.7 16 16.9 NNW 28 50 15 27 1007.8 1004.6 0.0
16/04:00pm 36.9 32.4 7.0 16 17.0 NW 20 50 11 27 1007.7 1004.5 0.0
16/03:30pm 36.9 30.5 7.0 16 17.0 NNW 30 44 16 24 1007.8 1004.6 0.0
16/03:06pm 37.0 30.8 6.1 15 17.3 NNW 28 46 15 25 1007.9 1004.7 0.0
16/03:00pm 36.5 30.2 5.7 15 17.1 NNW 28 41 15 22 1007.8 1004.6 0.0
16/02:30pm 37.2 31.2 5.3 14 17.7 NNW 26 41 14 22 1008.2 1005.0 0.0
16/02:00pm 37.2 32.6 6.3 15 17.4 NNW 20 33 11 18 1008.6 1005.4 0.0
16/01:55pm 36.7 30.4 5.9 15 17.2 NNW 28 46 15 25 1008.6 1005.4 0.0
16/01:30pm 37.1 31.3 6.2 15 17.3 NW 26 44 14 24 1009.0 1005.8 0.0
16/01:09pm 36.3 30.2 6.5 16 16.7 N 28 61 15 33 1009.2 1006.0 0.0
16/01:00pm 36.1 30.3 6.3 16 16.7 N 26 41 14 22 1009.3 1006.1 0.0
16/12:30pm 36.8 31.3 5.9 15 17.2 N 24 41 13 22 1009.7 1006.5 0.0
16/12:00pm 36.0 31.1 7.1 17 16.4 N 22 39 12 21 1010.1 1006.9 0.0
16/11:30am 35.5 29.6 5.8 16 16.4 N 26 39 14 21 1010.4 1007.3 0.0
16/11:00am 35.1 30.8 8.0 19 15.5 N 20 33 11 18 1010.9 1007.7 0.0
16/10:30am 33.9 30.7 8.5 21 14.5 NNW 15 28 8 15 1011.4 1008.2 0.0
16/10:00am 33.1 31.6 9.2 23 13.8 NE 7 20 4 11 1011.7 1008.5 0.0
16/09:30am 32.0 30.2 9.5 25 13.0 NE 9 20 5 11 1012.0 1008.8 0.0
16/09:00am 31.1 31.1 11.0 29 11.8 S 2 7 1 4 1012.3 1009.1 0.0
16/08:30am 29.4 28.5 13.6 38 9.6 ESE 11 22 6 12 1012.4 1009.2 0.0
16/08:00am 28.9 27.7 13.9 39 9.1 SE 13 20 7 11 1012.4 1009.2 0.0
16/07:30am 28.4 27.9 13.9 41 8.8 SE 9 19 5 10 1012.4 1009.2 0.0

Other Formats:

Comma delimited format used in spreadsheet applications
http://www.bom.gov.au/fwo/IDW60801/IDW60801.99737.axf

JavaScript Object Notation format (JSON) in row-major order
http://www.bom.gov.au/fwo/IDW60801/IDW60801.99737.json